Time;durP1;ratioP1;P1;durP2;ratioP2;P2;SDS_P1;SDS_P2;PMS_P1;PMS_P2;Temp;Humidity;BMP_temperature;BMP_pressure;BME280_temperature;BME280_humidity;BME280_pressure;Samples;Min_cycle;Max_cycle;Signal;HPM_P1;HPM_P2
2023/03/28 00:01:55;;;;;;;2.90;1.10;;;6.60;43.60;;;;;;4973856;28;20465;-68
2023/03/28 00:04:21;;;;;;;2.90;1.20;;;6.60;43.90;;;;;;4976045;28;20698;-68
2023/03/28 00:06:52;;;;;;;3.00;1.10;;;6.80;43.00;;;;;;4959351;28;20206;-69
2023/03/28 00:09:18;;;;;;;3.33;1.45;;;6.60;42.90;;;;;;4975383;28;20182;-68
2023/03/28 00:11:44;;;;;;;2.95;1.08;;;6.50;44.00;;;;;;4978289;28;20228;-68
2023/03/28 00:14:13;;;;;;;3.05;1.20;;;6.60;44.60;;;;;;4987576;28;20177;-68
2023/03/28 00:16:40;;;;;;;3.00;1.10;;;6.60;44.50;;;;;;4978548;28;20410;-68
2023/03/28 00:19:12;;;;;;;3.40;1.40;;;6.60;43.90;;;;;;4984661;28;20268;-68
2023/03/28 00:21:41;;;;;;;4.32;1.65;;;6.50;44.60;;;;;;4975501;28;20201;-69
2023/03/28 00:24:12;;;;;;;3.10;1.20;;;6.40;44.40;;;;;;4982557;28;20844;-69
2023/03/28 00:26:38;;;;;;;3.10;1.20;;;6.40;44.50;;;;;;4976297;28;20194;-69
2023/03/28 00:29:08;;;;;;;3.13;1.20;;;6.40;44.70;;;;;;4974552;28;20193;-69
2023/03/28 00:31:36;;;;;;;3.15;1.23;;;6.30;45.20;;;;;;4954770;28;20206;-68
2023/03/28 00:34:02;;;;;;;3.08;1.10;;;6.30;45.60;;;;;;4983067;28;20179;-69
2023/03/28 00:36:28;;;;;;;3.17;1.23;;;6.30;46.00;;;;;;4975943;28;20605;-69
2023/03/28 00:38:54;;;;;;;3.40;1.30;;;6.30;46.40;;;;;;4974933;28;20662;-69
2023/03/28 00:41:22;;;;;;;3.20;1.20;;;6.30;46.10;;;;;;4974474;28;20218;-69
2023/03/28 00:43:51;;;;;;;3.30;1.20;;;6.20;46.80;;;;;;4972547;28;20221;-68
2023/03/28 00:46:38;;;;;;;3.33;1.20;;;6.30;47.70;;;;;;4975007;28;20281;-69
2023/03/28 00:49:22;;;;;;;4.53;1.95;;;6.50;47.10;;;;;;4975850;28;20178;-69
2023/03/28 00:51:54;;;;;;;3.30;1.10;;;6.60;46.60;;;;;;4958606;28;20293;-69
2023/03/28 00:54:20;;;;;;;3.40;1.17;;;6.70;46.70;;;;;;4976767;28;20259;-68
2023/03/28 00:56:50;;;;;;;3.30;1.10;;;6.70;46.70;;;;;;4987168;28;20177;-69
2023/03/28 00:59:20;;;;;;;3.38;1.10;;;6.80;46.30;;;;;;4977576;28;20441;-68
2023/03/28 01:01:46;;;;;;;3.40;1.10;;;6.80;45.20;;;;;;4974434;28;20229;-68
2023/03/28 01:04:19;;;;;;;3.47;1.17;;;6.80;45.70;;;;;;4973302;28;20665;-69
2023/03/28 01:06:46;;;;;;;3.38;1.10;;;7.10;44.80;;;;;;4967011;28;20222;-69
2023/03/28 01:09:14;;;;;;;3.40;1.10;;;7.10;44.30;;;;;;4975543;28;20171;-69
2023/03/28 01:11:42;;;;;;;3.47;1.15;;;7.10;45.00;;;;;;4974088;28;20590;-68
2023/03/28 01:14:12;;;;;;;3.45;1.10;;;7.20;43.70;;;;;;4970269;28;20179;-68
2023/03/28 01:16:40;;;;;;;3.60;1.27;;;6.90;45.00;;;;;;4987331;28;20616;-68
2023/03/28 01:19:20;;;;;;;3.50;1.15;;;6.90;46.20;;;;;;4975046;28;20664;-69
2023/03/28 01:22:20;;;;;;;3.50;1.20;;;6.90;46.30;;;;;;4974479;28;20616;-68
2023/03/28 01:24:57;;;;;;;5.38;2.00;;;7.00;45.50;;;;;;4966603;28;20182;-69
2023/03/28 01:27:37;;;;;;;4.93;1.65;;;7.10;44.90;;;;;;4984690;28;20676;-68
2023/03/28 01:30:32;;;;;;;3.50;1.20;;;7.00;45.20;;;;;;4989277;28;20669;-69
2023/03/28 01:33:17;;;;;;;3.58;1.13;;;6.90;45.10;;;;;;4968210;28;20171;-67
2023/03/28 01:36:20;;;;;;;3.50;1.10;;;7.00;45.10;;;;;;4966359;28;20604;-71
2023/03/28 01:39:08;;;;;;;3.53;1.15;;;6.90;45.80;;;;;;4970070;28;20642;-67
2023/03/28 01:41:51;;;;;;;3.60;1.30;;;7.10;45.10;;;;;;4973216;28;20595;-67
2023/03/28 01:44:35;;;;;;;3.60;1.20;;;7.00;45.10;;;;;;4956316;28;20234;-69
2023/03/28 01:47:37;;;;;;;3.53;1.10;;;7.10;44.10;;;;;;4977167;28;20208;-68
2023/03/28 01:50:17;;;;;;;3.50;1.10;;;7.00;44.50;;;;;;4982733;28;20205;-68
2023/03/28 01:53:20;;;;;;;3.90;1.50;;;7.10;44.50;;;;;;4974200;28;20167;-67
2023/03/28 01:55:58;;;;;;;3.60;1.10;;;7.10;44.10;;;;;;4934420;28;20194;-67
2023/03/28 01:58:35;;;;;;;3.60;1.20;;;7.20;42.00;;;;;;4959983;28;20214;-68
2023/03/28 02:01:08;;;;;;;3.60;1.10;;;7.10;43.80;;;;;;4984071;28;20240;-71
2023/03/28 02:03:41;;;;;;;3.60;1.10;;;7.10;43.10;;;;;;4981737;28;20189;-67
2023/03/28 02:06:09;;;;;;;3.55;1.20;;;7.00;43.10;;;;;;4972959;28;20198;-67
2023/03/28 02:08:39;;;;;;;3.60;1.20;;;7.00;43.20;;;;;;4974264;28;20569;-66
2023/03/28 02:11:05;;;;;;;3.58;1.17;;;6.80;43.00;;;;;;4967885;28;20438;-66
2023/03/28 02:13:49;;;;;;;3.50;1.10;;;6.50;43.90;;;;;;4973952;28;20182;-67
2023/03/28 02:16:17;;;;;;;3.50;1.10;;;6.50;45.00;;;;;;4973378;28;20470;-67
2023/03/28 02:18:48;;;;;;;3.50;1.10;;;6.50;44.70;;;;;;4966653;28;20592;-67
2023/03/28 02:21:21;;;;;;;4.60;1.60;;;6.50;44.30;;;;;;4972422;28;20250;-70
2023/03/28 02:23:52;;;;;;;3.50;1.10;;;6.50;44.30;;;;;;4975005;28;20197;-67
2023/03/28 02:26:20;;;;;;;3.67;1.30;;;6.40;44.20;;;;;;4977361;28;20697;-67
2023/03/28 02:28:51;;;;;;;3.60;1.10;;;6.30;44.20;;;;;;4973106;28;20179;-67
2023/03/28 02:31:17;;;;;;;3.65;1.25;;;6.20;44.70;;;;;;4973824;28;20690;-67
2023/03/28 02:33:45;;;;;;;3.50;1.10;;;6.20;44.70;;;;;;4962222;28;20252;-67
2023/03/28 02:36:17;;;;;;;3.50;1.10;;;6.30;44.90;;;;;;4978955;28;20182;-67
2023/03/28 02:39:13;;;;;;;3.47;1.10;;;6.10;44.90;;;;;;4966085;28;20684;-68
2023/03/28 02:42:16;;;;;;;3.50;1.20;;;6.20;44.10;;;;;;4974010;28;20207;-67
2023/03/28 02:45:06;;;;;;;3.50;1.10;;;6.30;44.20;;;;;;4973209;28;20189;-71
2023/03/28 02:48:04;;;;;;;3.50;1.10;;;6.50;43.30;;;;;;4972973;28;20214;-66
2023/03/28 02:50:42;;;;;;;3.60;1.10;;;6.30;43.90;;;;;;4952323;28;20210;-67
2023/03/28 02:53:33;;;;;;;3.80;1.38;;;6.10;44.60;;;;;;4971333;28;20186;-67
2023/03/28 02:56:30;;;;;;;3.80;1.33;;;6.20;44.50;;;;;;4980980;28;20185;-69
2023/03/28 02:59:06;;;;;;;4.15;1.63;;;6.00;44.70;;;;;;4972166;28;20195;-67
2023/03/28 03:01:32;;;;;;;3.60;1.17;;;6.10;44.30;;;;;;4972133;28;20236;-67
2023/03/28 03:04:00;;;;;;;3.60;1.20;;;5.90;44.60;;;;;;4970658;28;20179;-67
2023/03/28 03:06:25;;;;;;;3.60;1.10;;;5.90;45.30;;;;;;4978030;28;20234;-67
2023/03/28 03:08:51;;;;;;;3.70;1.20;;;5.90;45.90;;;;;;4979880;28;20198;-69
2023/03/28 03:11:16;;;;;;;4.43;1.87;;;6.20;45.00;;;;;;5009650;22;20230;-70
2023/03/28 03:13:42;;;;;;;3.63;1.20;;;6.10;43.70;;;;;;4993332;28;20175;-71
2023/03/28 03:16:08;;;;;;;3.53;1.10;;;6.00;43.50;;;;;;4992174;28;20181;-71
2023/03/28 03:18:34;;;;;;;3.50;1.10;;;5.90;44.30;;;;;;5000232;28;21042;-71
2023/03/28 03:21:00;;;;;;;3.60;1.20;;;5.80;45.10;;;;;;4991377;28;20289;-71
2023/03/28 03:23:26;;;;;;;3.60;1.10;;;5.90;44.40;;;;;;4999006;28;20236;-71
2023/03/28 03:25:52;;;;;;;3.60;1.13;;;5.80;44.60;;;;;;4991595;28;20185;-71
2023/03/28 03:28:17;;;;;;;3.50;1.10;;;6.00;43.50;;;;;;5008364;28;20184;-71
2023/03/28 03:30:43;;;;;;;3.60;1.10;;;6.10;42.80;;;;;;4998495;28;20549;-68
2023/03/28 03:33:09;;;;;;;3.65;1.10;;;5.90;43.40;;;;;;4999084;28;20182;-68
2023/03/28 03:35:36;;;;;;;7.30;2.03;;;5.70;44.10;;;;;;5001755;28;20186;-68
2023/03/28 03:38:02;;;;;;;3.67;1.20;;;5.50;44.70;;;;;;4998500;28;20185;-68
2023/03/28 03:40:28;;;;;;;3.60;1.00;;;5.80;44.20;;;;;;4993547;28;20178;-68
2023/03/28 03:42:54;;;;;;;3.77;1.13;;;5.80;43.50;;;;;;4991661;28;20249;-67
2023/03/28 03:45:20;;;;;;;3.70;1.20;;;5.80;43.30;;;;;;4991283;28;20652;-68
2023/03/28 03:47:46;;;;;;;3.70;1.10;;;5.70;44.20;;;;;;4993338;28;20207;-68
2023/03/28 03:50:12;;;;;;;3.70;1.10;;;5.80;43.70;;;;;;4995662;28;20256;-67
2023/03/28 03:52:38;;;;;;;3.70;1.13;;;5.80;43.40;;;;;;4991468;28;20573;-68
2023/03/28 03:55:05;;;;;;;5.30;2.27;;;5.80;43.30;;;;;;4991875;28;20182;-68
2023/03/28 03:57:30;;;;;;;3.70;1.10;;;5.80;43.20;;;;;;4990670;28;20479;-68
2023/03/28 03:59:56;;;;;;;3.70;1.10;;;5.60;43.90;;;;;;5004803;28;20235;-71
2023/03/28 04:02:22;;;;;;;3.70;1.10;;;5.70;44.00;;;;;;4994165;28;20247;-71
2023/03/28 04:04:48;;;;;;;3.70;1.10;;;5.80;43.60;;;;;;4992066;28;20779;-69
2023/03/28 04:07:14;;;;;;;3.73;1.10;;;5.90;44.20;;;;;;4997847;28;20243;-71
2023/03/28 04:09:40;;;;;;;4.15;1.50;;;5.80;43.70;;;;;;5000232;28;20596;-69
2023/03/28 04:12:06;;;;;;;4.30;1.47;;;5.80;43.20;;;;;;4998958;28;20275;-69
2023/03/28 04:14:32;;;;;;;3.80;1.10;;;5.70;44.10;;;;;;5008794;28;20566;-69
2023/03/28 04:16:57;;;;;;;3.87;1.23;;;5.50;44.80;;;;;;4999622;28;20174;-69
2023/03/28 04:19:24;;;;;;;3.70;1.10;;;5.60;44.40;;;;;;4991491;28;20538;-70
2023/03/28 04:21:51;;;;;;;3.85;1.10;;;5.60;43.30;;;;;;4991282;28;20277;-69
2023/03/28 04:24:19;;;;;;;3.80;1.10;;;5.50;45.10;;;;;;4990254;28;20645;-69
2023/03/28 04:26:48;;;;;;;3.78;1.10;;;5.30;44.70;;;;;;5002798;28;20571;-70
2023/03/28 04:29:17;;;;;;;3.90;1.10;;;5.30;45.10;;;;;;4992238;28;20182;-69
2023/03/28 04:31:48;;;;;;;3.83;1.10;;;5.20;45.40;;;;;;4995522;28;20660;-69
2023/03/28 04:34:15;;;;;;;4.47;1.90;;;5.30;45.00;;;;;;4997140;28;20189;-70
2023/03/28 04:36:42;;;;;;;3.90;1.20;;;5.40;44.10;;;;;;4998517;28;20181;-70
2023/03/28 04:39:08;;;;;;;3.88;1.10;;;5.50;43.60;;;;;;5010815;28;20173;-70
2023/03/28 04:41:34;;;;;;;3.80;1.10;;;5.70;42.60;;;;;;5006809;28;20329;-70
2023/03/28 04:44:00;;;;;;;3.87;1.10;;;5.70;42.50;;;;;;4985415;28;20479;-70
2023/03/28 04:46:27;;;;;;;4.00;1.20;;;5.50;42.50;;;;;;4996014;28;20212;-69
2023/03/28 04:48:53;;;;;;;4.00;1.20;;;5.40;43.30;;;;;;5005764;28;20648;-68
2023/03/28 04:51:18;;;;;;;3.90;1.10;;;5.20;44.40;;;;;;5014322;28;20197;-70
2023/03/28 04:53:44;;;;;;;4.10;1.30;;;5.40;43.40;;;;;;4996321;28;20166;-69
2023/03/28 04:56:12;;;;;;;4.30;1.40;;;5.50;42.80;;;;;;4995503;28;20610;-69
2023/03/28 04:58:39;;;;;;;3.97;1.13;;;5.40;43.30;;;;;;5004751;28;20181;-70
2023/03/28 05:01:04;;;;;;;4.15;1.30;;;5.40;43.00;;;;;;5008939;28;20734;-70
2023/03/28 05:03:30;;;;;;;4.00;1.10;;;5.30;44.00;;;;;;5004948;28;20193;-69
2023/03/28 05:05:56;;;;;;;3.90;1.10;;;5.20;44.10;;;;;;5001357;28;20442;-69
2023/03/28 05:08:25;;;;;;;4.00;1.10;;;5.20;44.80;;;;;;5002509;28;20634;-70
2023/03/28 05:10:51;;;;;;;4.10;1.30;;;5.60;43.30;;;;;;4995000;28;20734;-69
2023/03/28 05:13:17;;;;;;;4.00;1.10;;;5.40;43.40;;;;;;4994571;28;20257;-69
2023/03/28 05:15:45;;;;;;;4.22;1.50;;;5.50;42.90;;;;;;4993341;28;20193;-70
2023/03/28 05:18:10;;;;;;;4.10;1.10;;;5.40;43.00;;;;;;4999831;28;20212;-70
2023/03/28 05:20:36;;;;;;;4.10;1.20;;;5.50;42.50;;;;;;5003546;28;20552;-69
2023/03/28 05:23:04;;;;;;;4.10;1.10;;;5.40;43.20;;;;;;4996459;28;20170;-70
2023/03/28 05:25:30;;;;;;;4.00;1.10;;;5.30;43.50;;;;;;4999477;28;20197;-69
2023/03/28 05:27:56;;;;;;;4.20;1.23;;;5.10;44.60;;;;;;4997049;28;20276;-69
2023/03/28 05:30:21;;;;;;;6.50;2.27;;;5.20;43.90;;;;;;5002344;28;20250;-70
2023/03/28 05:32:48;;;;;;;4.28;1.25;;;5.20;44.30;;;;;;4991353;28;20248;-69
2023/03/28 05:35:15;;;;;;;4.20;1.20;;;5.40;43.50;;;;;;5004220;28;20174;-70
2023/03/28 05:37:41;;;;;;;4.15;1.15;;;5.60;42.40;;;;;;5003289;28;20213;-70
2023/03/28 05:40:09;;;;;;;4.28;1.30;;;5.60;42.60;;;;;;5009284;28;20189;-70
2023/03/28 05:42:36;;;;;;;4.20;1.10;;;5.50;42.80;;;;;;5005622;28;20237;-69
2023/03/28 05:45:03;;;;;;;6.55;2.17;;;5.30;43.70;;;;;;4993654;28;20198;-70
2023/03/28 05:47:29;;;;;;;4.30;1.10;;;5.30;44.10;;;;;;5002076;28;20202;-69
2023/03/28 05:49:55;;;;;;;4.40;1.20;;;5.50;43.10;;;;;;4994672;28;20617;-67
2023/03/28 05:52:20;;;;;;;4.50;1.30;;;5.70;42.30;;;;;;5000602;28;20205;-68
2023/03/28 05:54:46;;;;;;;4.33;1.10;;;5.80;41.80;;;;;;4995010;28;20253;-70
2023/03/28 05:57:12;;;;;;;4.77;1.33;;;5.70;42.60;;;;;;4992919;28;20222;-70
2023/03/28 05:59:42;;;;;;;4.43;1.20;;;5.70;42.80;;;;;;5004764;28;20533;-70
2023/03/28 06:02:15;;;;;;;4.50;1.17;;;5.60;44.00;;;;;;5005918;28;20738;-69
2023/03/28 06:04:42;;;;;;;4.57;1.20;;;5.60;44.50;;;;;;4985966;28;20197;-70
2023/03/28 06:07:08;;;;;;;6.15;1.30;;;5.60;44.30;;;;;;4993650;28;20253;-69
2023/03/28 06:09:34;;;;;;;4.70;1.30;;;5.90;43.60;;;;;;4993613;28;20182;-69
2023/03/28 06:12:01;;;;;;;4.55;1.20;;;5.90;43.70;;;;;;4993892;28;20252;-70
2023/03/28 06:14:27;;;;;;;4.70;1.20;;;6.10;42.60;;;;;;4998373;28;20332;-69
2023/03/28 06:16:53;;;;;;;4.68;1.13;;;5.90;42.80;;;;;;5001822;28;20268;-70
2023/03/28 06:19:19;;;;;;;4.67;1.13;;;5.90;43.70;;;;;;5004315;28;20340;-70
2023/03/28 06:21:45;;;;;;;4.60;1.10;;;5.90;43.80;;;;;;5004160;28;20197;-70
2023/03/28 06:24:10;;;;;;;6.13;1.83;;;5.90;44.10;;;;;;5003499;28;20192;-69
2023/03/28 06:26:36;;;;;;;4.67;1.10;;;6.20;43.80;;;;;;4996148;28;20556;-70
2023/03/28 06:29:03;;;;;;;5.47;1.50;;;6.50;42.90;;;;;;5007353;28;20169;-70
2023/03/28 06:31:28;;;;;;;4.70;1.10;;;7.00;41.90;;;;;;4994148;28;20453;-70
2023/03/28 06:33:54;;;;;;;4.70;1.20;;;6.60;42.50;;;;;;4991735;28;20189;-69
2023/03/28 06:36:19;;;;;;;4.63;1.20;;;6.50;42.80;;;;;;5000521;28;20676;-70
2023/03/28 06:38:46;;;;;;;4.57;1.10;;;6.50;42.20;;;;;;4993418;28;20189;-70
2023/03/28 06:41:12;;;;;;;4.70;1.20;;;6.60;42.50;;;;;;4992003;28;20206;-70
2023/03/28 06:43:37;;;;;;;4.47;1.10;;;6.60;42.60;;;;;;5006782;28;20625;-70
2023/03/28 06:46:03;;;;;;;5.10;1.87;;;6.60;41.80;;;;;;4996202;28;20432;-70
2023/03/28 06:48:30;;;;;;;4.70;1.30;;;6.70;42.10;;;;;;4991449;28;20560;-70
2023/03/28 06:50:59;;;;;;;4.40;1.10;;;6.90;41.50;;;;;;4992720;28;20704;-70
2023/03/28 06:53:26;;;;;;;4.45;1.35;;;7.10;41.30;;;;;;4992566;28;20174;-70
2023/03/28 06:55:52;;;;;;;4.25;1.10;;;7.00;41.00;;;;;;4996875;28;20189;-69
2023/03/28 06:58:20;;;;;;;4.20;1.20;;;7.20;39.90;;;;;;5005759;28;20212;-70
2023/03/28 07:00:46;;;;;;;4.10;1.10;;;7.30;40.90;;;;;;4992397;28;20695;-70
2023/03/28 07:03:11;;;;;;;4.07;1.20;;;7.60;41.00;;;;;;4991855;28;20182;-70
2023/03/28 07:05:41;;;;;;;4.00;1.40;;;7.60;40.20;;;;;;4992177;28;20235;-70
2023/03/28 07:08:08;;;;;;;4.10;1.30;;;7.70;38.30;;;;;;4987919;28;20476;-74
2023/03/28 07:10:35;;;;;;;4.32;1.55;;;7.60;39.20;;;;;;4992967;28;21153;-75
2023/03/28 07:13:00;;;;;;;3.90;1.20;;;7.40;39.40;;;;;;5008812;28;20724;-75
2023/03/28 07:15:26;;;;;;;3.77;1.10;;;7.60;39.00;;;;;;5002213;28;20181;-76
2023/03/28 07:17:52;;;;;;;9.73;1.63;;;7.90;37.30;;;;;;5000666;28;20231;-70
2023/03/28 07:20:19;;;;;;;3.75;1.10;;;8.10;37.10;;;;;;4989170;28;20181;-70
2023/03/28 07:22:45;;;;;;;3.70;1.20;;;8.40;36.00;;;;;;4984814;28;20302;-70
2023/03/28 07:25:10;;;;;;;3.53;1.10;;;8.50;35.60;;;;;;4997820;28;20179;-68
2023/03/28 07:27:36;;;;;;;3.50;1.20;;;8.40;35.60;;;;;;4983768;28;20666;-70
2023/03/28 07:30:03;;;;;;;4.23;1.30;;;7.80;35.80;;;;;;4999279;28;20264;-70
2023/03/28 07:32:29;;;;;;;3.38;1.15;;;7.20;37.60;;;;;;4992434;28;20632;-66
2023/03/28 07:34:55;;;;;;;3.40;1.20;;;7.00;36.60;;;;;;4988629;28;20221;-69
2023/03/28 07:37:20;;;;;;;3.60;1.30;;;7.10;37.50;;;;;;4991552;28;20236;-69
2023/03/28 07:39:46;;;;;;;3.23;1.07;;;7.00;37.90;;;;;;4993576;28;20192;-70
2023/03/28 07:42:13;;;;;;;3.30;1.20;;;6.90;36.40;;;;;;5002842;28;20212;-69
2023/03/28 07:44:39;;;;;;;3.20;1.10;;;6.10;39.10;;;;;;5002084;28;20482;-69
2023/03/28 07:47:06;;;;;;;3.17;1.20;;;6.30;38.40;;;;;;4992569;28;20219;-69
2023/03/28 07:49:32;;;;;;;3.10;1.17;;;6.40;37.60;;;;;;5003759;28;20187;-67
2023/03/28 07:51:58;;;;;;;3.10;1.20;;;6.20;37.40;;;;;;5005753;28;20201;-69
2023/03/28 07:54:27;;;;;;;3.00;1.10;;;6.50;35.90;;;;;;5002402;28;20452;-69
2023/03/28 07:56:52;;;;;;;3.10;1.10;;;7.20;32.80;;;;;;4989737;28;20182;-69
2023/03/28 07:59:18;;;;;;;3.00;1.10;;;7.80;32.00;;;;;;4998152;28;20646;-66
2023/03/28 08:01:45;;;;;;;2.90;1.10;;;7.90;32.70;;;;;;5000836;28;20674;-69
2023/03/28 08:04:12;;;;;;;2.90;1.10;;;7.20;34.00;;;;;;5007766;28;20363;-69
2023/03/28 08:06:39;;;;;;;2.88;1.20;;;6.60;35.40;;;;;;4976411;28;20214;-69
2023/03/28 08:09:09;;;;;;;2.90;1.20;;;6.60;36.50;;;;;;4985875;28;20637;-70
2023/03/28 08:11:35;;;;;;;3.00;1.20;;;6.70;36.00;;;;;;4994326;28;20225;-69
2023/03/28 08:14:03;;;;;;;2.97;1.15;;;6.50;37.80;;;;;;4996032;28;20178;-69
2023/03/28 08:16:29;;;;;;;3.00;1.15;;;5.70;39.60;;;;;;4990755;28;20739;-68
2023/03/28 08:18:55;;;;;;;3.20;1.30;;;6.30;37.90;;;;;;4990042;28;20186;-68
2023/03/28 08:21:21;;;;;;;3.10;1.20;;;5.90;37.50;;;;;;4988745;28;20481;-69
2023/03/28 08:23:47;;;;;;;2.90;1.10;;;6.30;35.20;;;;;;5012009;28;20182;-67
2023/03/28 08:26:13;;;;;;;3.00;1.10;;;6.10;34.20;;;;;;5006733;28;20212;-69
2023/03/28 08:28:38;;;;;;;2.90;1.10;;;6.10;37.20;;;;;;5006104;28;20400;-68
2023/03/28 08:31:13;;;;;;;3.00;1.13;;;6.90;35.50;;;;;;4994350;28;20453;-70
2023/03/28 08:33:50;;;;;;;3.00;1.10;;;7.10;33.60;;;;;;4995643;28;20252;-70
2023/03/28 08:36:17;;;;;;;2.90;1.10;;;7.40;32.30;;;;;;4994124;28;20181;-67
2023/03/28 08:38:44;;;;;;;2.90;1.10;;;7.70;31.50;;;;;;5003711;28;20648;-69
2023/03/28 08:41:37;;;;;;;3.28;1.38;;;7.10;33.70;;;;;;5009110;28;20201;-70
2023/03/28 08:44:17;;;;;;;2.90;1.30;;;6.40;35.10;;;;;;4995940;28;20170;-69
2023/03/28 08:46:45;;;;;;;2.70;1.10;;;6.20;36.60;;;;;;5000397;28;20573;-70
2023/03/28 08:49:17;;;;;;;2.90;1.20;;;6.20;35.30;;;;;;4999457;28;20659;-70
2023/03/28 08:51:58;;;;;;;2.70;1.10;;;6.60;35.10;;;;;;5004867;28;20240;-69
2023/03/28 08:54:32;;;;;;;2.90;1.20;;;7.60;31.30;;;;;;4996727;28;20427;-70
2023/03/28 08:57:02;;;;;;;2.70;1.10;;;8.00;29.20;;;;;;5001476;28;20182;-70
2023/03/28 09:00:12;;;;;;;2.78;1.20;;;8.10;29.20;;;;;;5006790;28;20272;-70
2023/03/28 09:02:38;;;;;;;2.70;1.20;;;8.40;29.00;;;;;;4995278;28;20240;-70
2023/03/28 09:05:04;;;;;;;2.65;1.30;;;8.50;29.10;;;;;;5007066;28;20213;-69
2023/03/28 09:07:30;;;;;;;2.40;1.00;;;8.50;30.00;;;;;;4998977;28;20202;-68
2023/03/28 09:10:01;;;;;;;2.50;1.10;;;8.60;30.00;;;;;;4996504;28;20182;-69
2023/03/28 09:12:50;;;;;;;2.50;1.10;;;8.50;28.10;;;;;;4997492;28;20209;-69
2023/03/28 09:15:22;;;;;;;2.40;1.20;;;8.90;28.50;;;;;;4996457;28;20177;-69
2023/03/28 09:18:15;;;;;;;2.30;1.10;;;9.10;27.20;;;;;;4996136;28;20177;-72
2023/03/28 09:21:03;;;;;;;2.70;1.30;;;9.10;28.00;;;;;;4994357;28;20205;-71
2023/03/28 09:23:31;;;;;;;2.40;1.30;;;9.40;27.60;;;;;;4989922;28;20249;-69
2023/03/28 09:26:03;;;;;;;2.50;1.20;;;9.90;26.80;;;;;;4994241;28;20187;-70
2023/03/28 09:28:36;;;;;;;2.38;1.10;;;8.60;26.00;;;;;;5006247;28;20185;-69
2023/03/28 09:31:05;;;;;;;2.30;1.20;;;8.40;28.00;;;;;;5031139;23;20242;-68
2023/03/28 09:33:36;;;;;;;2.30;1.15;;;7.40;28.00;;;;;;5008090;28;20191;-68
2023/03/28 09:36:09;;;;;;;2.20;1.10;;;8.80;28.40;;;;;;5009588;28;20175;-67
2023/03/28 09:38:42;;;;;;;2.30;1.20;;;8.00;28.30;;;;;;5013193;28;20198;-68
2023/03/28 09:41:16;;;;;;;2.30;1.30;;;8.70;27.70;;;;;;5013949;28;20199;-67
2023/03/28 09:43:58;;;;;;;2.20;1.17;;;8.90;25.80;;;;;;5013596;28;20215;-67
2023/03/28 09:46:35;;;;;;;2.10;1.10;;;8.50;25.10;;;;;;5011883;28;20212;-67
2023/03/28 09:49:01;;;;;;;2.20;1.30;;;7.60;27.00;;;;;;5004881;28;20723;-68
2023/03/28 09:51:27;;;;;;;2.13;1.20;;;7.20;26.90;;;;;;5014059;28;20232;-70
2023/03/28 09:53:52;;;;;;;2.10;1.25;;;7.60;27.50;;;;;;5014190;28;20181;-70
2023/03/28 09:56:38;;;;;;;2.10;1.20;;;8.10;25.60;;;;;;5014017;28;20188;-70
2023/03/28 09:59:09;;;;;;;2.03;1.15;;;8.60;21.30;;;;;;5001504;28;20265;-70
2023/03/28 10:01:42;;;;;;;2.00;1.10;;;8.60;22.90;;;;;;5012717;28;20197;-70
2023/03/28 10:04:12;;;;;;;2.10;1.27;;;9.20;23.90;;;;;;5011012;28;20189;-70
2023/03/28 10:06:39;;;;;;;1.90;1.10;;;10.40;22.00;;;;;;5006425;28;20240;-70
2023/03/28 10:09:27;;;;;;;1.93;1.20;;;10.90;18.90;;;;;;5013967;28;20515;-68
2023/03/28 10:12:00;;;;;;;1.80;1.10;;;9.40;20.20;;;;;;5015635;28;20420;-70
2023/03/28 10:14:29;;;;;;;1.92;1.17;;;8.10;22.50;;;;;;5006388;28;20220;-71
2023/03/28 10:16:56;;;;;;;1.90;1.10;;;7.60;23.60;;;;;;5015957;28;20670;-71
2023/03/28 10:19:24;;;;;;;1.80;1.10;;;7.50;24.70;;;;;;5015460;28;20260;-71
2023/03/28 10:21:50;;;;;;;1.90;1.20;;;7.60;24.30;;;;;;5014104;28;20192;-68
2023/03/28 10:24:20;;;;;;;1.80;1.10;;;8.60;23.10;;;;;;5010529;28;20675;-68
2023/03/28 10:26:46;;;;;;;1.90;1.10;;;9.40;25.00;;;;;;5003353;28;20206;-67
2023/03/28 10:29:14;;;;;;;2.20;1.30;;;10.50;20.70;;;;;;5004664;28;20451;-68
2023/03/28 10:31:46;;;;;;;1.83;1.20;;;10.80;19.40;;;;;;5012821;28;20283;-68
2023/03/28 10:34:25;;;;;;;1.80;1.10;;;10.80;18.80;;;;;;5010572;28;20495;-69
2023/03/28 10:36:51;;;;;;;1.73;1.10;;;10.90;19.50;;;;;;5000496;28;20272;-68
2023/03/28 10:39:23;;;;;;;1.90;1.20;;;11.80;20.70;;;;;;5007728;28;20460;-69
2023/03/28 10:41:59;;;;;;;1.90;1.20;;;11.70;18.50;;;;;;5005763;28;20201;-68
2023/03/28 10:44:35;;;;;;;1.80;1.20;;;11.70;20.00;;;;;;5012399;28;20247;-68
2023/03/28 10:47:13;;;;;;;1.80;1.10;;;12.20;18.60;;;;;;5012140;28;20192;-68
2023/03/28 10:49:51;;;;;;;1.90;1.30;;;11.40;19.30;;;;;;5011897;28;20523;-68
2023/03/28 10:52:47;;;;;;;1.90;1.30;;;11.10;19.60;;;;;;5003917;28;20894;-71
2023/03/28 10:55:18;;;;;;;2.83;1.80;;;11.20;20.70;;;;;;5011132;28;20451;-69
2023/03/28 10:57:49;;;;;;;4.20;2.17;;;11.20;21.10;;;;;;5012481;28;20503;-70
2023/03/28 11:00:30;;;;;;;2.00;1.30;;;12.40;20.10;;;;;;5010430;28;20932;-70
2023/03/28 11:03:27;;;;;;;1.90;1.10;;;12.40;20.30;;;;;;4998696;28;20470;-70
2023/03/28 11:05:56;;;;;;;2.00;1.20;;;13.40;17.10;;;;;;4992665;28;20406;-70
2023/03/28 11:08:37;;;;;;;2.00;1.30;;;14.50;19.50;;;;;;5000980;28;20461;-68
2023/03/28 11:11:34;;;;;;;1.93;1.20;;;14.70;18.50;;;;;;5009078;28;20455;-68
2023/03/28 11:14:16;;;;;;;2.10;1.40;;;15.50;15.10;;;;;;5006797;28;20427;-68
2023/03/28 11:16:52;;;;;;;2.00;1.40;;;16.10;17.10;;;;;;5000025;28;20438;-68
2023/03/28 11:19:33;;;;;;;1.90;1.27;;;16.90;14.60;;;;;;5008634;28;20437;-68
2023/03/28 11:22:13;;;;;;;2.20;1.50;;;14.60;15.60;;;;;;5005381;28;20426;-68
2023/03/28 11:24:49;;;;;;;2.50;1.67;;;13.50;21.30;;;;;;5008245;28;20440;-68
2023/03/28 11:27:47;;;;;;;2.00;1.23;;;15.20;15.00;;;;;;5008322;28;20467;-67
2023/03/28 11:30:19;;;;;;;2.10;1.30;;;15.50;17.10;;;;;;5009167;28;20440;-68
2023/03/28 11:33:04;;;;;;;2.10;1.40;;;16.90;14.20;;;;;;5007366;28;20457;-68
2023/03/28 11:36:28;;;;;;;2.37;1.30;;;18.20;12.10;;;;;;5008006;28;20819;-71
2023/03/28 11:39:01;;;;;;;2.20;1.20;;;16.90;11.10;;;;;;4945356;28;20466;-68
2023/03/28 11:41:31;;;;;;;2.23;1.30;;;15.30;12.50;;;;;;4948099;28;20487;-69
2023/03/28 11:44:15;;;;;;;2.93;1.70;;;16.90;12.60;;;;;;4938934;29;20435;-68
2023/03/28 11:47:03;;;;;;;2.10;1.30;;;17.30;12.10;;;;;;4940745;29;20546;-68
2023/03/28 11:49:37;;;;;;;2.70;1.37;;;17.90;15.30;;;;;;4947058;29;20454;-70
2023/03/28 11:52:11;;;;;;;2.27;1.20;;;16.60;10.90;;;;;;4947532;29;20903;-71
2023/03/28 11:55:10;;;;;;;2.33;1.30;;;14.20;13.60;;;;;;4937821;29;20443;-70
2023/03/28 11:57:50;;;;;;;2.30;1.20;;;15.80;16.20;;;;;;4945918;29;20973;-68
2023/03/28 12:00:27;;;;;;;3.00;1.40;;;17.90;12.60;;;;;;4947988;29;20476;-70
2023/03/28 12:03:22;;;;;;;2.80;1.30;;;18.50;10.60;;;;;;4953545;29;21027;-68
2023/03/28 12:05:56;;;;;;;3.43;1.40;;;19.60;10.50;;;;;;4935958;29;20433;-69
2023/03/28 12:08:33;;;;;;;3.30;1.53;;;19.10;10.90;;;;;;4934977;29;20466;-68
2023/03/28 12:11:09;;;;;;;3.40;1.50;;;19.90;12.20;;;;;;4929275;29;21027;-69
2023/03/28 12:13:57;;;;;;;3.20;1.37;;;19.70;8.80;;;;;;4958478;28;20444;-68
2023/03/28 12:16:33;;;;;;;3.50;1.50;;;19.80;9.60;;;;;;5011914;28;20484;-68
2023/03/28 12:19:01;;;;;;;3.10;1.40;;;19.80;8.80;;;;;;5013256;28;20922;-68
2023/03/28 12:21:48;;;;;;;3.40;1.50;;;18.40;10.70;;;;;;5014440;28;20444;-68
2023/03/28 12:24:28;;;;;;;4.90;1.60;;;18.40;9.60;;;;;;5009098;28;20423;-69
2023/03/28 12:27:03;;;;;;;3.03;1.37;;;17.90;11.40;;;;;;5014165;28;20833;-68
2023/03/28 12:29:52;;;;;;;2.80;1.30;;;17.50;12.80;;;;;;5012878;28;20437;-68
2023/03/28 12:32:30;;;;;;;3.20;1.40;;;16.30;13.50;;;;;;5014587;28;20514;-69
2023/03/28 12:35:04;;;;;;;2.90;1.20;;;16.30;13.30;;;;;;5013634;28;20424;-70
2023/03/28 12:37:38;;;;;;;3.10;1.40;;;16.20;11.70;;;;;;5012274;28;20431;-70
2023/03/28 12:40:23;;;;;;;3.00;1.30;;;16.80;11.90;;;;;;5013895;28;20512;-69
2023/03/28 12:42:53;;;;;;;4.07;1.60;;;17.20;10.80;;;;;;5013496;28;20505;-68
2023/03/28 12:45:23;;;;;;;2.80;1.20;;;17.40;11.30;;;;;;5012955;28;20492;-68
2023/03/28 12:47:53;;;;;;;3.10;1.50;;;16.50;11.60;;;;;;5009684;28;20542;-68
2023/03/28 12:50:27;;;;;;;3.73;1.40;;;17.70;13.70;;;;;;5014266;28;20447;-69
2023/03/28 12:52:55;;;;;;;3.10;1.40;;;19.00;11.10;;;;;;5013310;28;20941;-68
2023/03/28 12:55:24;;;;;;;3.10;1.30;;;18.80;10.00;;;;;;5013219;28;20469;-68
2023/03/28 12:57:51;;;;;;;3.47;1.33;;;17.50;11.70;;;;;;5005859;28;20535;-68
2023/03/28 13:00:46;;;;;;;3.37;1.37;;;17.70;11.00;;;;;;5004801;28;20440;-69
2023/03/28 13:03:12;;;;;;;3.87;1.50;;;19.00;9.20;;;;;;5004882;28;20672;-68
2023/03/28 13:05:56;;;;;;;3.10;1.30;;;20.60;9.70;;;;;;5014084;28;20494;-68
2023/03/28 13:08:30;;;;;;;3.20;1.30;;;22.20;8.90;;;;;;5014135;28;20200;-69
2023/03/28 13:11:08;;;;;;;3.90;1.40;;;22.20;8.20;;;;;;5013828;28;20408;-69
2023/03/28 13:14:01;;;;;;;3.77;1.47;;;23.40;9.00;;;;;;5010138;28;20522;-70
2023/03/28 13:16:50;;;;;;;3.30;1.13;;;24.00;6.50;;;;;;5012453;28;21044;-70
2023/03/28 13:19:19;;;;;;;3.90;1.40;;;22.90;9.30;;;;;;5011678;28;21068;-70
2023/03/28 13:21:46;;;;;;;3.57;1.20;;;22.90;6.30;;;;;;5010665;28;20447;-67